ADDS METAR Data INFO
IDs: Format: Raw Decoded Include TAF

Data at: 0114 UTC 24 Jun 2018

K9A5 240055Z AUTO 17003KT 10SM CLR 22/21 A2991 RMK AO2 T02230211
K9A5 240035Z AUTO 18003KT 10SM CLR 23/21 A2991 RMK AO2 T02280209
K9A5 240015Z AUTO 19003KT 10SM CLR 23/21 A2992 RMK AO2 T02320210
K9A5 232355Z AUTO 21003KT 10SM CLR 24/21 A2992 RMK AO2 T02410206 10263 20216
K9A5 232335Z AUTO 20004KT 10SM SCT065 24/21 A2992 RMK AO2 T02380212
K9A5 232315Z AUTO 19004KT 10SM SCT065 24/21 A2991 RMK AO2 T02380208
K9A5 232255Z AUTO 18003KT 10SM CLR 23/22 A2991 RMK AO2 T02340218
K9A5 232235Z AUTO 19003KT 10SM SCT110 24/22 A2991 RMK AO2 T02390216
K9A5 232215Z AUTO 19004KT 10SM SCT110 24/22 A2991 RMK AO2 T02390221
K9A5 232155Z AUTO 17003KT 10SM CLR 24/22 A2992 RMK AO2 T02420220
K9A5 232135Z AUTO 20003KT 10SM CLR 25/22 A2993 RMK AO2 T02500221
K9A5 232115Z AUTO 00000KT 10SM CLR 25/22 A2994 RMK AO2 T02530222
K9A5 232055Z AUTO 00000KT 10SM SCT120 24/23 A2994 RMK AO2 T02400226
K9A5 232035Z AUTO 00000KT 10SM SCT120 23/22 A2993 RMK AO2 T02330223
K9A5 232015Z AUTO 19003KT 10SM SCT120 23/23 A2992 RMK AO2 T02320226
K9A5 231955Z AUTO 20004KT 7SM CLR 23/23 A2992 RMK AO2 T02310225
K9A5 231935Z AUTO 00000KT 7SM CLR 23/23 A2992 RMK AO2 T02310227
K9A5 231915Z AUTO 00000KT 10SM SCT030 SCT035 SCT042 23/22 A2992 RMK AO2 T02250220
K9A5 231855Z AUTO 00000KT 10SM SCT031 BKN046 BKN070 22/22 A2995 RMK AO2 T02200217
K9A5 231835Z AUTO 20004KT 5SM SCT028 BKN048 OVC065 22/21 A2996 RMK AO2 T02190209
K9A5 231815Z AUTO 23005G19KT 3/4SM BKN016 OVC031 22/20 A2998 RMK AO2 T02210204
K9A5 231755Z AUTO 24013G18KT 7SM SCT030 BKN043 OVC070 27/22 A2998 RMK AO2 T02650216 10278 20201
K9A5 231735Z AUTO 21009G14KT 7SM SCT029 SCT043 BKN070 28/22 A2996 RMK AO2 T02750220
K9A5 231715Z AUTO 20005KT 10SM SCT025 BKN033 BKN050 27/22 A2995 RMK AO2 T02710221
K9A5 231655Z AUTO 20007KT 10SM BKN025 BKN032 OVC040 27/22 A2995 RMK AO2 T02680220
K9A5 231635Z AUTO 21006KT 10SM BKN025 BKN030 OVC090 27/22 A2995 RMK AO2 T02650222
K9A5 231615Z AUTO 22006KT 10SM BKN023 OVC029 26/22 A2995 RMK AO2 T02600222
K9A5 231555Z AUTO 00000KT 10SM BKN021 BKN035 BKN041 25/22 A2995 RMK AO2 T02540220
K9A5 231535Z AUTO 00000KT 10SM SCT075 SCT085 26/22 A2995 RMK AO2 T02620218
K9A5 231515Z AUTO 22005KT 7SM SCT015 SCT045 BKN085 26/22 A2995 RMK AO2 T02560220
K9A5 231455Z AUTO 00000KT 10SM SCT013 SCT045 25/22 A2994 RMK AO2 T02520220
K9A5 231435Z AUTO 17004KT 10SM BKN013 BKN017 24/22 A2994 RMK AO2 T02440220
K9A5 231415Z AUTO 19003KT 10SM BKN011 24/22 A2995 RMK AO2 T02420223
K9A5 231355Z AUTO 19003KT 10SM OVC009 23/22 A2995 RMK AO2 T02280224
K9A5 231335Z AUTO 00000KT 10SM OVC009 22/22 A2995 RMK AO2 T02220221
K9A5 231315Z AUTO 17004KT 10SM OVC005 22/22 A2994 RMK AO2 T02200220
K9A5 231255Z AUTO 00000KT 7SM BKN005 BKN009 OVC014 21/21 A2995 RMK AO2 T02120212
K9A5 231235Z AUTO 00000KT 7SM BKN003 BKN009 BKN014 21/21 A2994 RMK AO2 T02100210
K9A5 231215Z AUTO 20004KT 10SM SCT002 SCT075 21/21 A2992 RMK AO2 T02060206
K9A5 231155Z AUTO 00000KT 7SM SCT002 BKN075 20/20 A2993 RMK AO2 T02020202 10202 20188
K9A5 231135Z AUTO 00000KT 4SM BKN002 BKN009 20/20 A2992 RMK AO2 T01990199
K9A5 231115Z AUTO 00000KT 4SM OVC002 20/20 A2992 RMK AO2 T01960196
K9A5 231055Z AUTO 00000KT 1 1/4SM OVC002 20/20 A2990 RMK AO2 T01950195
K9A5 231035Z AUTO 00000KT 1 1/4SM OVC002 20/20 A2990 RMK AO2 T01950195
K9A5 231015Z AUTO 00000KT 7SM OVC002 19/19 A2990 RMK AO2 T01920192
K9A5 230955Z AUTO 00000KT 5SM BKN002 BKN006 19/19 A2989 RMK AO2 T01900190
K9A5 230935Z AUTO 00000KT 5SM CLR 19/19 A2987 RMK AO2 T01900190
K9A5 230915Z AUTO 00000KT 5SM SCT004 SCT015 19/19 A2987 RMK AO2 T01910191
K9A5 230855Z AUTO 00000KT 5SM SCT004 BKN015 19/19 A2987 RMK AO2 T01920192
K9A5 230835Z AUTO 00000KT 10SM BKN004 BKN015 20/20 A2986 RMK AO2 T01950195
K9A5 230815Z AUTO 00000KT 7SM OVC004 20/20 A2987 RMK AO2 T01970197
K9A5 230755Z AUTO 00000KT 10SM OVC004 20/20 A2987 RMK AO2 T01970197
K9A5 230735Z AUTO 20003KT 7SM OVC004 20/20 A2987 RMK AO2 T01980198
K9A5 230715Z AUTO 20003KT 7SM OVC004 20/20 A2986 RMK AO2 T01980198
K9A5 230655Z AUTO 21003KT 7SM OVC004 20/20 A2986 RMK AO2 T01990199
K9A5 230635Z AUTO 00000KT 7SM OVC004 20/20 A2985 RMK AO2 T02000200
K9A5 230615Z AUTO 00000KT 5SM OVC004 20/20 A2985 RMK AO2 T02000200
K9A5 230555Z AUTO 00000KT 5SM BKN004 OVC080 20/20 A2985 RMK AO2 T01990199 10240 20199 402970191
K9A5 230535Z AUTO 00000KT 5SM OVC004 20/20 A2984 RMK AO2 T02000200
K9A5 230515Z AUTO 00000KT 5SM OVC006 20/20 A2985 RMK AO2 T02000200
K9A5 230455Z AUTO 00000KT 5SM OVC006 20/20 A2984 RMK AO2 T02000200
K9A5 230435Z AUTO 00000KT 5SM BKN006 BKN010 BKN049 20/20 A2984 RMK AO2 T02000200
K9A5 230415Z AUTO 00000KT 5SM SCT006 SCT075 BKN100 20/20 A2985 RMK AO2 T02000200
K9A5 230355Z AUTO 00000KT 7SM SCT006 SCT055 OVC110 20/20 A2985 RMK AO2 T02000200
K9A5 230335Z AUTO 00000KT 7SM BKN110 20/20 A2985 RMK AO2 T01990199
K9A5 230315Z AUTO 00000KT 7SM BKN120 20/20 A2986 RMK AO2 T02000200
K9A5 230255Z AUTO 00000KT 7SM BKN120 20/20 A2985 RMK AO2 T02010201
K9A5 230235Z AUTO 00000KT 7SM BKN110 20/20 A2985 RMK AO2 T02020202
K9A5 230215Z AUTO 22003KT 7SM SCT120 21/21 A2984 RMK AO2 T02080208
K9A5 230155Z AUTO 00000KT 7SM SCT050 SCT065 SCT100 21/21 A2982 RMK AO2 T02120210
K9A5 230135Z AUTO 00000KT 4SM SCT012 BKN050 OVC090 21/21 A2983 RMK AO2 T02120208
K9A5 230115Z AUTO 20005KT 3/4SM BKN012 OVC042 23/22 A2984 RMK AO2 T02290223
K9A5 230055Z AUTO 00000KT 10SM SCT018 SCT042 BKN055 23/22 A2982 RMK AO2 T02300220
K9A5 230035Z AUTO 00000KT 10SM SCT055 SCT100 23/21 A2982 RMK AO2 T02340212
K9A5 230015Z AUTO 20003KT 10SM SCT020 BKN049 OVC100 24/21 A2982 RMK AO2 T02380213
K9A5 222355Z AUTO 00000KT 10SM BKN020 BKN037 OVC048 24/22 A2981 RMK AO2 T02350217 10297 20223
K9A5 222335Z AUTO 00000KT 10SM SCT020 SCT033 BKN039 24/21 A2982 RMK AO2 T02390213
K9A5 222315Z AUTO 18003KT 10SM SCT036 SCT041 25/22 A2981 RMK AO2 T02460215
K9A5 222255Z AUTO 00000KT 10SM CLR 25/21 A2982 RMK AO2 T02450212
K9A5 222235Z AUTO 00000KT 10SM SCT019 SCT035 SCT095 24/22 A2982 RMK AO2 T02410217
K9A5 222215Z AUTO 17005KT 10SM SCT019 SCT095 25/21 A2982 RMK AO2 T02530214
K9A5 222155Z AUTO 18003KT 10SM SCT095 25/22 A2982 RMK AO2 T02480222
K9A5 222135Z AUTO 20006KT 10SM CLR 25/23 A2983 RMK AO2 T02480230
K9A5 222115Z AUTO 19003KT 10SM CLR 24/24 A2983 RMK AO2 T02430237
K9A5 222055Z AUTO 20003KT 7SM SCT030 SCT048 SCT080 23/23 A2982 RMK AO2 T02310227
K9A5 222035Z AUTO 21009G17KT 170V240 1SM BKN007 OVC033 22/21 A2983 RMK AO2 T02230211
K9A5 222015Z AUTO 00000KT 10SM SCT045 SCT050 BKN065 27/20 A2980 RMK AO2 T02740201
K9A5 221955Z AUTO 19005KT 10SM SCT050 SCT060 BKN090 28/20 A2980 RMK AO2 T02790198
K9A5 221935Z AUTO 19007KT 10SM SCT120 29/20 A2982 RMK AO2 T02920204
K9A5 221915Z AUTO 20004KT 10SM SCT120 28/20 A2983 RMK AO2 T02770203
K9A5 221855Z AUTO 21005KT 10SM CLR 28/20 A2984 RMK AO2 T02760203
K9A5 221835Z AUTO 20007G14KT 160V230 10SM CLR 30/21 A2983 RMK AO2 T02950207
K9A5 221815Z AUTO 19005KT 10SM CLR 29/21 A2984 RMK AO2 T02910208
K9A5 221755Z AUTO 18005KT 10SM CLR 28/21 A2985 RMK AO2 T02840206 10291 20195
K9A5 221735Z AUTO 20005KT 7SM CLR 29/21 A2985 RMK AO2 T02890208
K9A5 221715Z AUTO 20007KT 10SM CLR 29/21 A2986 RMK AO2 T02880206
K9A5 221655Z AUTO 18005KT 10SM CLR 29/21 A2986 RMK AO2 T02850207
K9A5 221635Z AUTO 13004KT 10SM CLR 28/21 A2986 RMK AO2 T02750210
K9A5 221615Z AUTO 18006KT 10SM CLR 27/21 A2986 RMK AO2 T02690208
K9A5 221555Z AUTO 20004KT 7SM CLR 27/20 A2987 RMK AO2 T02650197
K9A5 221535Z AUTO 22005KT 7SM CLR 26/20 A2986 RMK AO2 T02610204
K9A5 221515Z AUTO 00000KT 10SM CLR 26/21 A2987 RMK AO2 T02550205
K9A5 221455Z AUTO 18006KT 10SM CLR 25/20 A2987 RMK AO2 T02520201
K9A5 221435Z AUTO 16004KT 10SM CLR 25/20 A2987 RMK AO2 T02460198
K9A5 221415Z AUTO 18004KT 10SM CLR 24/19 A2987 RMK AO2 T02440194
K9A5 221355Z AUTO 14003KT 10SM CLR 24/20 A2987 RMK AO2 T02350199
K9A5 221335Z AUTO 00000KT 10SM CLR 23/19 A2986 RMK AO2 T02260194
K9A5 221315Z AUTO 00000KT 10SM CLR 22/19 A2987 RMK AO2 T02190191